aviador You're here:

KLSE Decoded Metar

LA CROSSE in WI, USA
Report Time2017-12-18 07:53:00
UTC Time2017-12-18 08:53:20
Flight Rules ifr IFR
WindCalm
Visibility6437 m
Phenomena:Mist
Clouds:Overcast 007 Hf
Expected CloudBase > 400 ft AGL from Temp-Dew spread
Ceiling700 ft
Temp-1°C (ISA -15)
Dew Point-2°C (93% RH)
AAT-3.3°C
QNH1013 hPa
Density Alt-1,070 ft
Elevation653 ft
Report Wrong Elevation
Raw Report
KLSE 180753Z AUTO 00000KT 4SM BR OVC007 M01/M02 A2992 RMK AO2
SLP143 T10061017=

Extra information for KLSE:More info

Metar Taf Metar & Taf Last 4 Metars F.Rules Stats Wind Profile Meteogram Temp Stats Airport Information Weather charts Add Link Nearby VenuesMetar ALERT Operation Metar Decoded Social comments

AIRNAV info for KLSE